Time;durP1;ratioP1;P1;durP2;ratioP2;P2;SDS_P1;SDS_P2;PMS_P1;PMS_P2;Temp;Humidity;BMP_temperature;BMP_pressure;BME280_temperature;BME280_humidity;BME280_pressure;Samples;Min_cycle;Max_cycle;Signal;HPM_P1;HPM_P2
2022/11/06 00:00:02;;;;;;;14.15;11.48;;;;;;;;;;4878590;29;20044;-78
2022/11/06 00:02:31;;;;;;;16.27;13.02;;;;;;;;;;4896025;29;20063;-76
2022/11/06 00:06:46;;;;;;;8.05;7.15;;;;;;;;;;4911373;29;20048;-77
2022/11/06 00:07:46;;;;;;;9.52;8.38;;;;;;;;;;4909629;29;20123;-79
2022/11/06 00:10:14;;;;;;;12.95;11.35;;;;;;;;;;4897172;29;20033;-78
2022/11/06 00:12:40;;;;;;;13.32;10.70;;;;;;;;;;4895658;29;20139;-78
2022/11/06 00:15:06;;;;;;;12.43;10.95;;;;;;;;;;4911224;29;20108;-78
2022/11/06 00:17:32;;;;;;;16.35;12.63;;;;;;;;;;4895727;29;20043;-77
2022/11/06 00:19:58;;;;;;;19.77;15.02;;;;;;;;;;4895404;29;20037;-78
2022/11/06 00:22:24;;;;;;;16.80;12.48;;;;;;;;;;4911301;29;20746;-78
2022/11/06 00:24:50;;;;;;;14.73;13.20;;;;;;;;;;4910829;29;20501;-78
2022/11/06 00:27:16;;;;;;;11.82;10.68;;;;;;;;;;4895557;29;20032;-79
2022/11/06 00:29:42;;;;;;;12.30;11.15;;;;;;;;;;4910776;29;20036;-77
2022/11/06 00:32:08;;;;;;;11.48;10.38;;;;;;;;;;4895543;29;20417;-77
2022/11/06 00:34:34;;;;;;;12.15;10.98;;;;;;;;;;4896712;29;20041;-80
2022/11/06 00:36:59;;;;;;;12.32;10.98;;;;;;;;;;4895516;29;20036;-80
2022/11/06 00:39:26;;;;;;;12.80;10.07;;;;;;;;;;4914731;29;20087;-79
2022/11/06 00:41:51;;;;;;;11.88;10.70;;;;;;;;;;4913863;29;20048;-79
2022/11/06 00:44:17;;;;;;;11.88;10.73;;;;;;;;;;4915401;29;20040;-78
2022/11/06 00:46:43;;;;;;;13.90;12.43;;;;;;;;;;4915268;29;20097;-80
2022/11/06 00:49:09;;;;;;;13.77;12.10;;;;;;;;;;4898092;29;20508;-78
2022/11/06 00:51:35;;;;;;;10.73;9.77;;;;;;;;;;4914249;29;20060;-80
2022/11/06 00:54:02;;;;;;;16.05;9.55;;;;;;;;;;4913790;29;20114;-79
2022/11/06 00:56:28;;;;;;;10.63;9.73;;;;;;;;;;4898708;29;20130;-80
2022/11/06 00:58:54;;;;;;;8.98;8.27;;;;;;;;;;4898037;29;20036;-80
2022/11/06 01:01:21;;;;;;;10.48;9.57;;;;;;;;;;4907935;29;20039;-78
2022/11/06 01:03:50;;;;;;;9.93;8.93;;;;;;;;;;4914826;29;20091;-78
2022/11/06 01:06:16;;;;;;;14.02;12.68;;;;;;;;;;4915078;29;20040;-78
2022/11/06 01:08:42;;;;;;;15.27;13.82;;;;;;;;;;4913404;29;20036;-79
2022/11/06 01:11:09;;;;;;;13.15;11.85;;;;;;;;;;4913583;29;20108;-79
2022/11/06 01:13:35;;;;;;;10.77;9.80;;;;;;;;;;4914741;29;20127;-79
2022/11/06 01:16:03;;;;;;;13.10;11.05;;;;;;;;;;4914890;29;20036;-78
2022/11/06 01:18:29;;;;;;;10.98;9.25;;;;;;;;;;4898077;29;20044;-79
2022/11/06 01:20:54;;;;;;;12.60;10.85;;;;;;;;;;4914545;29;20552;-79
2022/11/06 01:23:21;;;;;;;14.32;11.98;;;;;;;;;;4913454;29;20080;-78
2022/11/06 01:25:59;;;;;;;12.50;11.23;;;;;;;;;;4914419;29;20032;-77
2022/11/06 01:28:25;;;;;;;10.32;9.38;;;;;;;;;;4914631;29;20044;-79
2022/11/06 01:30:51;;;;;;;10.35;9.05;;;;;;;;;;4914374;29;20043;-79
2022/11/06 01:33:17;;;;;;;17.73;15.93;;;;;;;;;;4913537;29;20040;-79
2022/11/06 01:35:43;;;;;;;12.45;11.20;;;;;;;;;;4914040;29;20429;-79
2022/11/06 01:38:09;;;;;;;16.35;13.93;;;;;;;;;;4915736;29;20040;-79
2022/11/06 01:40:39;;;;;;;16.02;12.05;;;;;;;;;;4898345;29;20047;-79
2022/11/06 01:43:11;;;;;;;10.07;9.23;;;;;;;;;;4914445;29;20054;-79
2022/11/06 01:45:37;;;;;;;7.68;7.00;;;;;;;;;;4914124;29;20042;-80
2022/11/06 01:48:04;;;;;;;18.58;14.60;;;;;;;;;;4902378;29;20044;-79
2022/11/06 01:50:30;;;;;;;16.77;13.75;;;;;;;;;;4894536;29;20075;-79
2022/11/06 01:52:59;;;;;;;12.45;11.25;;;;;;;;;;4895277;29;20067;-78
2022/11/06 01:55:26;;;;;;;6.68;6.05;;;;;;;;;;4895093;29;20056;-79
2022/11/06 01:57:53;;;;;;;6.55;6.05;;;;;;;;;;4894388;29;20064;-79
2022/11/06 02:00:19;;;;;;;10.23;9.32;;;;;;;;;;4878391;29;20520;-79
2022/11/06 02:02:45;;;;;;;8.70;7.78;;;;;;;;;;4909610;29;20198;-79
2022/11/06 02:05:11;;;;;;;8.10;7.40;;;;;;;;;;4896005;29;20044;-80
2022/11/06 02:07:38;;;;;;;6.50;5.90;;;;;;;;;;4896305;29;20519;-80
2022/11/06 02:10:04;;;;;;;9.82;8.82;;;;;;;;;;4896271;29;20120;-80
2022/11/06 02:12:42;;;;;;;8.93;7.47;;;;;;;;;;4898659;29;20536;-80
2022/11/06 02:15:37;;;;;;;7.07;6.38;;;;;;;;;;4898293;29;20044;-79
2022/11/06 02:18:24;;;;;;;10.05;8.82;;;;;;;;;;4899883;29;20139;-79
2022/11/06 02:20:50;;;;;;;7.20;6.60;;;;;;;;;;4900749;29;20630;-79
2022/11/06 02:23:24;;;;;;;8.60;7.57;;;;;;;;;;4898286;29;20093;-79
2022/11/06 02:26:00;;;;;;;4.88;4.53;;;;;;;;;;4895056;29;20032;-79
2022/11/06 02:28:45;;;;;;;8.27;7.50;;;;;;;;;;4893688;29;20040;-80
2022/11/06 02:31:12;;;;;;;11.18;10.27;;;;;;;;;;4909347;29;20040;-80
2022/11/06 02:33:41;;;;;;;11.23;10.23;;;;;;;;;;4893794;29;20174;-79
2022/11/06 02:36:08;;;;;;;11.88;10.70;;;;;;;;;;4877691;29;20033;-77
2022/11/06 02:38:36;;;;;;;6.68;6.05;;;;;;;;;;4905039;29;20063;-78
2022/11/06 02:41:03;;;;;;;7.88;6.90;;;;;;;;;;4896082;29;20044;-78
2022/11/06 02:43:36;;;;;;;7.40;6.82;;;;;;;;;;4896558;29;20048;-79
2022/11/06 02:46:02;;;;;;;13.18;11.70;;;;;;;;;;4913329;29;20520;-80
2022/11/06 02:48:39;;;;;;;12.07;10.75;;;;;;;;;;4912154;29;20054;-79
2022/11/06 02:51:06;;;;;;;13.23;11.82;;;;;;;;;;4896084;29;20425;-79
2022/11/06 02:53:33;;;;;;;15.40;12.15;;;;;;;;;;4911872;29;20804;-79
2022/11/06 02:56:08;;;;;;;12.60;10.98;;;;;;;;;;4896544;29;20036;-79
2022/11/06 02:58:40;;;;;;;20.60;16.38;;;;;;;;;;4896655;29;20071;-79
2022/11/06 03:01:10;;;;;;;13.75;12.35;;;;;;;;;;4896628;29;20130;-79
2022/11/06 03:03:39;;;;;;;18.55;15.88;;;;;;;;;;4913535;29;20052;-81
2022/11/06 03:06:06;;;;;;;15.88;13.88;;;;;;;;;;4914158;29;20422;-79
2022/11/06 03:08:38;;;;;;;14.48;12.07;;;;;;;;;;4915639;29;20032;-79
2022/11/06 03:11:07;;;;;;;14.40;11.55;;;;;;;;;;4929237;29;20066;-78
2022/11/06 03:13:48;;;;;;;11.20;9.70;;;;;;;;;;4927234;29;20084;-78
2022/11/06 03:16:24;;;;;;;22.27;16.33;;;;;;;;;;4916344;29;20107;-79
2022/11/06 03:19:13;;;;;;;22.13;15.93;;;;;;;;;;4913329;29;20176;-78
2022/11/06 03:21:42;;;;;;;14.60;12.60;;;;;;;;;;4889950;29;20116;-81
2022/11/06 03:24:18;;;;;;;19.42;15.32;;;;;;;;;;4913224;29;20561;-81
2022/11/06 03:26:46;;;;;;;17.45;14.75;;;;;;;;;;4915616;29;20055;-80
2022/11/06 03:29:17;;;;;;;16.35;14.75;;;;;;;;;;4913317;29;20044;-81
2022/11/06 03:31:56;;;;;;;14.05;12.55;;;;;;;;;;4912086;29;20567;-80
2022/11/06 03:34:30;;;;;;;18.25;13.23;;;;;;;;;;4912650;29;20048;-80
2022/11/06 03:36:58;;;;;;;8.73;7.93;;;;;;;;;;4915594;29;20123;-79
2022/11/06 03:39:26;;;;;;;20.17;16.00;;;;;;;;;;4880829;29;20640;-79
2022/11/06 03:41:53;;;;;;;7.18;6.18;;;;;;;;;;4880599;29;20532;-80
2022/11/06 03:44:20;;;;;;;23.65;16.92;;;;;;;;;;4897739;29;20040;-80
2022/11/06 03:46:48;;;;;;;16.52;9.82;;;;;;;;;;4897490;29;20466;-80
2022/11/06 03:49:16;;;;;;;14.07;11.43;;;;;;;;;;4880683;29;20753;-80
2022/11/06 03:52:01;;;;;;;23.00;16.17;;;;;;;;;;4911897;29;20524;-79
2022/11/06 03:54:34;;;;;;;8.90;7.88;;;;;;;;;;4880311;29;20525;-79
2022/11/06 03:57:04;;;;;;;16.50;12.73;;;;;;;;;;4895893;29;20069;-77
2022/11/06 03:59:35;;;;;;;19.85;13.80;;;;;;;;;;4911747;29;20516;-77
2022/11/06 04:02:01;;;;;;;16.67;13.50;;;;;;;;;;4879899;29;20049;-78
2022/11/06 04:04:28;;;;;;;17.10;14.07;;;;;;;;;;4897033;29;20595;-78
2022/11/06 04:06:54;;;;;;;10.82;9.40;;;;;;;;;;4896780;29;20053;-78
2022/11/06 04:14:50;;;;;;;30.02;20.55;;;;;;;;;;4895709;29;20092;-78
2022/11/06 04:17:16;;;;;;;13.15;11.88;;;;;;;;;;4895625;29;20505;-77
2022/11/06 04:19:45;;;;;;;19.67;14.50;;;;;;;;;;4864444;29;20036;-78
2022/11/06 04:22:14;;;;;;;19.35;16.92;;;;;;;;;;4879597;29;20509;-78
2022/11/06 04:27:43;;;;;;;9.38;7.65;;;;;;;;;;4896797;29;20044;-76
2022/11/06 04:30:10;;;;;;;11.77;10.07;;;;;;;;;;4896214;29;20040;-78
2022/11/06 04:32:42;;;;;;;20.13;14.80;;;;;;;;;;4880083;29;20614;-79
2022/11/06 04:35:17;;;;;;;23.67;16.52;;;;;;;;;;4894991;29;20137;-77
2022/11/06 04:37:43;;;;;;;18.05;15.75;;;;;;;;;;4900244;29;20043;-77
2022/11/06 04:40:25;;;;;;;18.90;13.77;;;;;;;;;;4914792;29;20115;-77
2022/11/06 04:43:14;;;;;;;20.92;14.88;;;;;;;;;;4898192;29;20052;-78
2022/11/06 04:45:41;;;;;;;13.02;9.65;;;;;;;;;;4909100;29;20050;-77
2022/11/06 04:48:07;;;;;;;14.40;12.90;;;;;;;;;;4898174;29;20036;-72
2022/11/06 04:50:35;;;;;;;20.38;14.80;;;;;;;;;;4914962;29;20043;-73
2022/11/06 04:53:01;;;;;;;19.00;13.43;;;;;;;;;;4914933;29;20076;-72
2022/11/06 04:55:28;;;;;;;4.90;4.57;;;;;;;;;;4913465;29;20052;-73
2022/11/06 04:57:54;;;;;;;18.80;12.27;;;;;;;;;;4914743;29;20175;-72
2022/11/06 05:00:20;;;;;;;16.35;12.27;;;;;;;;;;4913425;29;20119;-73
2022/11/06 05:02:45;;;;;;;17.75;14.95;;;;;;;;;;4908624;29;20212;-73
2022/11/06 05:05:11;;;;;;;17.83;13.40;;;;;;;;;;4902165;29;20119;-73
2022/11/06 05:07:37;;;;;;;24.40;16.20;;;;;;;;;;4899756;29;20042;-73
2022/11/06 05:10:03;;;;;;;27.92;21.10;;;;;;;;;;4914310;29;20047;-73
2022/11/06 05:12:29;;;;;;;18.88;13.27;;;;;;;;;;4914443;29;20756;-73
2022/11/06 05:14:55;;;;;;;28.02;16.30;;;;;;;;;;4912930;29;20032;-73
2022/11/06 05:17:21;;;;;;;15.40;12.02;;;;;;;;;;4913347;29;20469;-73
2022/11/06 05:19:47;;;;;;;16.00;14.38;;;;;;;;;;4913133;29;20493;-73
2022/11/06 05:24:57;;;;;;;12.07;10.85;;;;;;;;;;4900772;29;20127;-76
2022/11/06 05:27:23;;;;;;;10.07;9.25;;;;;;;;;;4908496;29;20127;-76
2022/11/06 05:29:49;;;;;;;12.60;11.52;;;;;;;;;;4913575;29;20036;-74
2022/11/06 05:32:15;;;;;;;15.77;14.25;;;;;;;;;;4910918;29;20095;-74
2022/11/06 05:34:41;;;;;;;8.23;7.63;;;;;;;;;;4912870;29;20039;-74
2022/11/06 05:37:07;;;;;;;12.70;11.50;;;;;;;;;;4913865;29;20051;-74
2022/11/06 05:39:32;;;;;;;10.57;9.63;;;;;;;;;;4914413;29;20043;-74
2022/11/06 05:41:58;;;;;;;10.65;9.75;;;;;;;;;;4897120;29;20488;-74
2022/11/06 05:44:24;;;;;;;7.35;6.75;;;;;;;;;;4913198;29;20044;-74
2022/11/06 05:46:50;;;;;;;7.22;6.72;;;;;;;;;;4914361;29;20424;-74
2022/11/06 05:49:17;;;;;;;13.00;11.93;;;;;;;;;;4914056;29;20698;-74
2022/11/06 05:51:43;;;;;;;11.43;10.40;;;;;;;;;;4914449;29;20036;-74
2022/11/06 05:54:09;;;;;;;8.77;8.18;;;;;;;;;;4912530;29;20146;-74
2022/11/06 05:56:34;;;;;;;12.38;11.38;;;;;;;;;;4914191;29;20127;-74
2022/11/06 05:59:00;;;;;;;8.60;8.00;;;;;;;;;;4914254;29;20704;-74
2022/11/06 06:01:26;;;;;;;9.35;7.78;;;;;;;;;;4912922;29;20036;-74
2022/11/06 06:03:52;;;;;;;11.00;9.98;;;;;;;;;;4896648;29;20032;-74
2022/11/06 06:06:18;;;;;;;4.25;4.00;;;;;;;;;;4913473;29;20563;-75
2022/11/06 06:08:44;;;;;;;12.18;11.07;;;;;;;;;;4912662;29;20733;-74
2022/11/06 06:11:10;;;;;;;17.58;12.30;;;;;;;;;;4912299;29;20051;-74
2022/11/06 06:13:36;;;;;;;9.40;7.30;;;;;;;;;;4912860;29;20035;-74
2022/11/06 06:16:02;;;;;;;10.55;9.65;;;;;;;;;;4913904;29;20138;-74
2022/11/06 06:18:28;;;;;;;10.40;9.43;;;;;;;;;;4914145;29;20043;-73
2022/11/06 06:20:56;;;;;;;10.60;9.57;;;;;;;;;;4912313;29;20036;-75
2022/11/06 06:23:22;;;;;;;12.50;11.30;;;;;;;;;;4912222;29;20040;-74
2022/11/06 06:25:47;;;;;;;11.45;10.40;;;;;;;;;;4896317;29;20032;-75
2022/11/06 06:28:13;;;;;;;8.48;7.70;;;;;;;;;;4912935;29;20113;-74
2022/11/06 06:30:39;;;;;;;7.70;7.10;;;;;;;;;;4895990;29;20091;-74
2022/11/06 06:33:05;;;;;;;11.35;10.23;;;;;;;;;;4895902;29;20131;-74
2022/11/06 06:35:31;;;;;;;8.48;7.88;;;;;;;;;;4913074;29;20039;-73
2022/11/06 06:37:58;;;;;;;7.82;7.05;;;;;;;;;;4896184;29;20040;-73
2022/11/06 06:40:25;;;;;;;11.25;10.35;;;;;;;;;;4896184;29;20036;-73
2022/11/06 06:42:54;;;;;;;11.43;7.65;;;;;;;;;;4912560;29;20051;-73
2022/11/06 06:45:20;;;;;;;10.77;8.73;;;;;;;;;;4898937;29;20036;-75
2022/11/06 06:47:46;;;;;;;9.25;8.02;;;;;;;;;;4915227;29;20043;-75
2022/11/06 06:50:12;;;;;;;10.82;10.02;;;;;;;;;;4911573;29;20042;-75
2022/11/06 06:52:38;;;;;;;8.85;8.10;;;;;;;;;;4913371;29;20070;-74
2022/11/06 06:55:04;;;;;;;8.02;7.35;;;;;;;;;;4895859;29;20797;-75
2022/11/06 06:57:30;;;;;;;8.38;7.22;;;;;;;;;;4913647;29;20087;-74
2022/11/06 06:59:56;;;;;;;8.45;7.65;;;;;;;;;;4914293;29;20456;-74
2022/11/06 07:02:22;;;;;;;11.68;6.35;;;;;;;;;;4897273;29;20040;-74
2022/11/06 07:04:48;;;;;;;5.65;5.15;;;;;;;;;;4913699;29;20493;-74
2022/11/06 07:07:14;;;;;;;7.93;7.18;;;;;;;;;;4913412;29;20536;-74
2022/11/06 07:09:40;;;;;;;8.90;8.05;;;;;;;;;;4911456;29;20136;-74
2022/11/06 07:12:06;;;;;;;5.35;5.03;;;;;;;;;;4895681;29;20046;-74
2022/11/06 07:14:32;;;;;;;4.93;3.95;;;;;;;;;;4911585;29;20412;-74
2022/11/06 07:16:58;;;;;;;8.27;7.68;;;;;;;;;;4895770;29;20131;-74
2022/11/06 07:19:23;;;;;;;6.22;5.80;;;;;;;;;;4911384;29;20131;-75
2022/11/06 07:21:50;;;;;;;10.63;9.73;;;;;;;;;;4911200;29;20048;-74
2022/11/06 07:24:17;;;;;;;8.32;7.47;;;;;;;;;;4911380;29;20075;-75
2022/11/06 07:26:42;;;;;;;6.18;4.50;;;;;;;;;;4912718;29;20122;-75
2022/11/06 07:29:08;;;;;;;10.68;9.88;;;;;;;;;;4911491;29;20541;-73
2022/11/06 07:31:35;;;;;;;7.38;6.85;;;;;;;;;;4911421;29;20039;-74
2022/11/06 07:34:01;;;;;;;9.10;5.60;;;;;;;;;;4913048;29;20576;-74
2022/11/06 07:36:27;;;;;;;7.82;7.13;;;;;;;;;;4912040;29;20527;-74
2022/11/06 07:38:53;;;;;;;5.50;5.15;;;;;;;;;;4911500;29;20039;-73
2022/11/06 07:41:19;;;;;;;6.47;5.85;;;;;;;;;;4911279;29;20032;-74
2022/11/06 07:43:47;;;;;;;5.07;4.78;;;;;;;;;;4911810;29;20054;-74
2022/11/06 07:46:13;;;;;;;5.85;5.05;;;;;;;;;;4895451;29;20036;-74
2022/11/06 07:48:39;;;;;;;7.00;6.50;;;;;;;;;;4905537;29;20036;-74
2022/11/06 07:51:06;;;;;;;7.88;7.28;;;;;;;;;;4910952;29;20032;-73
2022/11/06 07:53:32;;;;;;;7.28;6.57;;;;;;;;;;4910675;29;20036;-72
2022/11/06 07:55:58;;;;;;;4.72;4.43;;;;;;;;;;4888492;29;20031;-74
2022/11/06 07:58:24;;;;;;;8.82;6.43;;;;;;;;;;4905432;29;20096;-74
2022/11/06 08:00:50;;;;;;;6.75;6.25;;;;;;;;;;4893140;29;20032;-73
2022/11/06 08:03:16;;;;;;;8.30;7.55;;;;;;;;;;4897917;29;20060;-73
2022/11/06 08:05:42;;;;;;;6.45;5.68;;;;;;;;;;4910510;29;20043;-74
2022/11/06 08:08:08;;;;;;;6.72;6.20;;;;;;;;;;4910579;29;20040;-74
2022/11/06 08:10:36;;;;;;;7.53;6.93;;;;;;;;;;4910523;29;20108;-73
2022/11/06 08:13:02;;;;;;;7.93;7.20;;;;;;;;;;4894728;29;20563;-73
2022/11/06 08:15:28;;;;;;;8.20;7.50;;;;;;;;;;4903081;29;20124;-73
2022/11/06 08:17:54;;;;;;;9.65;6.82;;;;;;;;;;4907149;29;20037;-72
2022/11/06 08:20:20;;;;;;;8.05;7.38;;;;;;;;;;4892856;29;20044;-74
2022/11/06 08:22:46;;;;;;;7.90;7.07;;;;;;;;;;4897213;29;20056;-73
2022/11/06 08:25:12;;;;;;;5.25;4.85;;;;;;;;;;4913355;29;20077;-73
2022/11/06 08:27:38;;;;;;;7.72;7.03;;;;;;;;;;4915240;29;20540;-73
2022/11/06 08:30:04;;;;;;;9.35;8.48;;;;;;;;;;4914015;29;20049;-73
2022/11/06 08:32:30;;;;;;;10.57;9.13;;;;;;;;;;4882892;29;20035;-73
2022/11/06 08:34:56;;;;;;;8.80;7.93;;;;;;;;;;4915435;29;20135;-75
2022/11/06 08:37:22;;;;;;;11.32;10.38;;;;;;;;;;4914718;29;20032;-74
2022/11/06 08:39:47;;;;;;;10.80;8.98;;;;;;;;;;4915043;29;20092;-73
2022/11/06 08:42:14;;;;;;;13.00;9.65;;;;;;;;;;4915101;29;20783;-74
2022/11/06 08:44:43;;;;;;;6.25;5.78;;;;;;;;;;4929783;29;20052;-74
2022/11/06 08:47:09;;;;;;;10.57;9.73;;;;;;;;;;4913689;29;20028;-74
2022/11/06 08:49:35;;;;;;;9.07;8.27;;;;;;;;;;4898350;29;20398;-74
2022/11/06 08:52:01;;;;;;;11.07;10.18;;;;;;;;;;4914867;29;20032;-74
2022/11/06 08:54:27;;;;;;;7.32;6.68;;;;;;;;;;4914690;29;20076;-74
2022/11/06 08:56:52;;;;;;;10.00;9.07;;;;;;;;;;4915702;29;20125;-74
2022/11/06 08:59:19;;;;;;;9.77;8.95;;;;;;;;;;4898699;29;20040;-74
2022/11/06 09:01:45;;;;;;;9.75;8.88;;;;;;;;;;4914856;29;20484;-74
2022/11/06 09:04:11;;;;;;;6.13;4.80;;;;;;;;;;4912859;29;20151;-75
2022/11/06 09:06:37;;;;;;;10.43;9.63;;;;;;;;;;4915549;29;20416;-74
2022/11/06 09:09:03;;;;;;;5.93;5.45;;;;;;;;;;4914598;29;20067;-76
2022/11/06 09:11:29;;;;;;;10.07;9.20;;;;;;;;;;4915410;29;20484;-75
2022/11/06 09:13:55;;;;;;;7.72;7.05;;;;;;;;;;4899288;29;20063;-73
2022/11/06 09:16:21;;;;;;;8.70;7.97;;;;;;;;;;4915184;29;20048;-72
2022/11/06 09:18:46;;;;;;;10.13;9.20;;;;;;;;;;4926842;29;20036;-74
2022/11/06 09:21:13;;;;;;;11.40;10.25;;;;;;;;;;4927039;29;20405;-73
2022/11/06 09:23:39;;;;;;;10.52;9.55;;;;;;;;;;4926951;29;20047;-75
2022/11/06 09:26:04;;;;;;;12.30;11.25;;;;;;;;;;4927528;29;20032;-74
2022/11/06 09:28:30;;;;;;;13.40;12.07;;;;;;;;;;4920095;29;20044;-74
2022/11/06 09:30:56;;;;;;;12.05;11.05;;;;;;;;;;4914326;29;20123;-75
2022/11/06 09:33:22;;;;;;;11.13;10.00;;;;;;;;;;4915487;29;20451;-75
2022/11/06 09:35:48;;;;;;;10.43;9.48;;;;;;;;;;4915316;29;20123;-75
2022/11/06 09:38:14;;;;;;;10.30;9.07;;;;;;;;;;4910822;29;20135;-74
2022/11/06 09:40:50;;;;;;;11.43;10.43;;;;;;;;;;4914161;29;20128;-75
2022/11/06 09:43:16;;;;;;;12.43;11.25;;;;;;;;;;4915470;29;20052;-74
2022/11/06 09:45:42;;;;;;;12.40;10.48;;;;;;;;;;4913171;29;20127;-74
2022/11/06 09:48:22;;;;;;;9.77;8.98;;;;;;;;;;4914815;29;20063;-76
2022/11/06 09:50:59;;;;;;;9.50;8.43;;;;;;;;;;4915612;29;20091;-75
2022/11/06 09:53:30;;;;;;;12.75;11.55;;;;;;;;;;4913097;29;20099;-75
2022/11/06 09:55:56;;;;;;;11.40;10.10;;;;;;;;;;4912761;29;20701;-75
2022/11/06 09:58:24;;;;;;;13.52;12.13;;;;;;;;;;4896652;29;20047;-75
2022/11/06 10:00:50;;;;;;;13.80;12.35;;;;;;;;;;4912382;29;20517;-74
2022/11/06 10:03:19;;;;;;;12.15;10.98;;;;;;;;;;4881502;29;20610;-76
2022/11/06 10:05:46;;;;;;;15.88;13.85;;;;;;;;;;4914429;29;20036;-76
2022/11/06 10:08:16;;;;;;;13.57;12.38;;;;;;;;;;4913965;29;20036;-75
2022/11/06 10:10:45;;;;;;;12.55;11.30;;;;;;;;;;4913129;29;20051;-77
2022/11/06 10:13:15;;;;;;;7.55;6.82;;;;;;;;;;4914799;29;20032;-76
2022/11/06 10:15:45;;;;;;;12.85;8.95;;;;;;;;;;4914227;29;20353;-77
2022/11/06 10:18:17;;;;;;;10.88;9.65;;;;;;;;;;4913925;29;20040;-75
2022/11/06 10:20:46;;;;;;;12.15;10.95;;;;;;;;;;4897358;29;20501;-77
2022/11/06 10:23:19;;;;;;;16.02;11.88;;;;;;;;;;4912825;29;20067;-76
2022/11/06 10:25:53;;;;;;;13.48;12.20;;;;;;;;;;4912763;29;20555;-76
2022/11/06 10:28:22;;;;;;;12.35;11.15;;;;;;;;;;4909086;29;20044;-77
2022/11/06 10:31:07;;;;;;;18.20;13.35;;;;;;;;;;4919246;29;20036;-75
2022/11/06 10:33:51;;;;;;;15.80;13.05;;;;;;;;;;4922504;29;20035;-76
2022/11/06 10:36:28;;;;;;;11.07;10.10;;;;;;;;;;4907587;29;20036;-77
2022/11/06 10:38:54;;;;;;;17.05;15.27;;;;;;;;;;4913299;29;20143;-76
2022/11/06 10:41:21;;;;;;;11.93;10.82;;;;;;;;;;4897074;29;20063;-76
2022/11/06 10:43:47;;;;;;;12.48;11.25;;;;;;;;;;4896676;29;20535;-76
2022/11/06 10:46:18;;;;;;;10.23;9.13;;;;;;;;;;4913557;29;20043;-76
2022/11/06 10:48:55;;;;;;;10.67;7.93;;;;;;;;;;4914977;29;20155;-76
2022/11/06 10:51:42;;;;;;;12.35;11.30;;;;;;;;;;4912704;29;20287;-76
2022/11/06 10:54:24;;;;;;;11.13;9.00;;;;;;;;;;4912880;29;20048;-76
2022/11/06 10:57:09;;;;;;;13.82;12.40;;;;;;;;;;4912372;29;20072;-75
2022/11/06 10:59:35;;;;;;;11.25;10.15;;;;;;;;;;4907950;29;20542;-76
2022/11/06 11:02:01;;;;;;;11.27;10.20;;;;;;;;;;4907175;29;20060;-77
2022/11/06 11:04:26;;;;;;;7.03;6.53;;;;;;;;;;4910168;29;20572;-77
2022/11/06 11:06:52;;;;;;;12.45;11.25;;;;;;;;;;4909864;29;20048;-76
2022/11/06 11:09:32;;;;;;;12.73;9.88;;;;;;;;;;4911611;29;20401;-76
2022/11/06 11:11:58;;;;;;;13.98;12.75;;;;;;;;;;4913667;29;20039;-75
2022/11/06 11:14:28;;;;;;;13.52;12.32;;;;;;;;;;4915025;29;20087;-75
2022/11/06 11:16:54;;;;;;;11.00;8.15;;;;;;;;;;4915375;29;20047;-75
2022/11/06 11:19:20;;;;;;;12.15;11.13;;;;;;;;;;4913959;29;20038;-75
2022/11/06 11:21:59;;;;;;;14.18;11.90;;;;;;;;;;4916890;29;20028;-75
2022/11/06 11:24:25;;;;;;;11.82;10.55;;;;;;;;;;4900520;29;20044;-75
2022/11/06 11:27:01;;;;;;;13.75;11.85;;;;;;;;;;4917139;29;20028;-74
2022/11/06 11:29:40;;;;;;;13.40;9.90;;;;;;;;;;4917134;29;20024;-75
2022/11/06 11:32:06;;;;;;;11.88;10.68;;;;;;;;;;4919438;29;20036;-75
2022/11/06 11:34:33;;;;;;;15.65;14.05;;;;;;;;;;4918405;29;20036;-75
2022/11/06 11:37:00;;;;;;;13.60;10.32;;;;;;;;;;4917337;29;20120;-76
2022/11/06 11:39:30;;;;;;;12.15;10.88;;;;;;;;;;4907251;29;20559;-76
2022/11/06 11:42:14;;;;;;;12.38;11.07;;;;;;;;;;4921012;29;20039;-75
2022/11/06 11:44:40;;;;;;;12.43;11.35;;;;;;;;;;4896101;29;20509;-77
2022/11/06 11:47:18;;;;;;;10.23;9.25;;;;;;;;;;4912305;29;20068;-77
2022/11/06 11:49:45;;;;;;;11.73;10.63;;;;;;;;;;4904252;29;20036;-78
2022/11/06 11:52:11;;;;;;;11.65;10.55;;;;;;;;;;4907233;29;20040;-77
2022/11/06 11:54:37;;;;;;;11.48;10.38;;;;;;;;;;4909652;29;20130;-76
2022/11/06 11:57:07;;;;;;;6.95;6.43;;;;;;;;;;4917653;29;20489;-78
2022/11/06 11:59:36;;;;;;;9.70;8.88;;;;;;;;;;4920366;29;20610;-77
2022/11/06 12:02:21;;;;;;;17.10;10.77;;;;;;;;;;4900546;29;20544;-77
2022/11/06 12:04:49;;;;;;;13.18;11.77;;;;;;;;;;4916945;29;20039;-77
2022/11/06 12:07:34;;;;;;;16.67;13.63;;;;;;;;;;4916287;29;20119;-77
2022/11/06 12:10:01;;;;;;;14.80;11.57;;;;;;;;;;4900286;29;20064;-75
2022/11/06 12:12:31;;;;;;;15.05;13.70;;;;;;;;;;4900519;29;20032;-76
2022/11/06 12:15:09;;;;;;;13.50;11.63;;;;;;;;;;4913784;29;20036;-75
2022/11/06 12:17:36;;;;;;;10.70;9.60;;;;;;;;;;4916920;29;20051;-75
2022/11/06 12:20:02;;;;;;;9.63;8.80;;;;;;;;;;4883783;29;20039;-75
2022/11/06 12:22:30;;;;;;;13.70;12.35;;;;;;;;;;4898164;29;20044;-75
2022/11/06 12:25:00;;;;;;;10.90;9.80;;;;;;;;;;4915659;29;20039;-75
2022/11/06 12:27:27;;;;;;;11.37;10.33;;;;;;;;;;4911337;29;20040;-75
2022/11/06 12:29:56;;;;;;;16.83;12.30;;;;;;;;;;4913652;29;20272;-75
2022/11/06 12:32:33;;;;;;;12.48;11.23;;;;;;;;;;4913757;29;20050;-76
2022/11/06 12:35:19;;;;;;;11.13;10.13;;;;;;;;;;4899056;29;20599;-76
2022/11/06 12:37:51;;;;;;;14.13;11.32;;;;;;;;;;4916322;29;20032;-76
2022/11/06 12:40:19;;;;;;;13.25;10.30;;;;;;;;;;4915480;29;20039;-77
2022/11/06 12:43:05;;;;;;;11.38;10.18;;;;;;;;;;4918092;29;20474;-76
2022/11/06 12:45:36;;;;;;;8.48;7.57;;;;;;;;;;4889188;29;20047;-74
2022/11/06 12:48:16;;;;;;;13.18;11.52;;;;;;;;;;4924054;29;20028;-75
2022/11/06 12:50:54;;;;;;;10.60;7.72;;;;;;;;;;4926133;29;20036;-76
2022/11/06 12:53:28;;;;;;;11.60;10.18;;;;;;;;;;4923750;29;20032;-76
2022/11/06 12:55:56;;;;;;;14.30;9.82;;;;;;;;;;4917579;29;20048;-76
2022/11/06 12:58:28;;;;;;;10.80;9.38;;;;;;;;;;4918032;29;20111;-76
2022/11/06 13:01:13;;;;;;;17.95;10.77;;;;;;;;;;4920703;29;20772;-76
2022/11/06 13:03:51;;;;;;;18.33;13.07;;;;;;;;;;4921640;29;20047;-77
2022/11/06 13:06:26;;;;;;;11.07;9.95;;;;;;;;;;4919443;29;20138;-76
2022/11/06 13:09:11;;;;;;;10.93;9.93;;;;;;;;;;4921131;29;20093;-76
2022/11/06 13:11:40;;;;;;;14.27;10.65;;;;;;;;;;4908663;29;20156;-77
2022/11/06 13:14:24;;;;;;;10.82;9.63;;;;;;;;;;4920444;29;20036;-75
2022/11/06 13:16:54;;;;;;;11.63;9.23;;;;;;;;;;4918261;29;20100;-76
2022/11/06 13:19:27;;;;;;;12.43;11.23;;;;;;;;;;4919266;29;20592;-75
2022/11/06 13:22:14;;;;;;;9.55;8.75;;;;;;;;;;4917580;29;20450;-76
2022/11/06 13:24:49;;;;;;;7.75;7.05;;;;;;;;;;4921527;29;20024;-76
2022/11/06 13:27:18;;;;;;;11.52;8.75;;;;;;;;;;4920835;29;20042;-76
2022/11/06 13:29:44;;;;;;;11.23;7.63;;;;;;;;;;4900802;29;20597;-75
2022/11/06 13:32:12;;;;;;;12.45;11.30;;;;;;;;;;4914998;29;20036;-76
2022/11/06 13:34:38;;;;;;;10.73;9.85;;;;;;;;;;4916392;29;20063;-75
2022/11/06 13:37:05;;;;;;;11.40;10.35;;;;;;;;;;4914645;29;20039;-74
2022/11/06 13:39:32;;;;;;;12.85;8.20;;;;;;;;;;4904386;29;20066;-76
2022/11/06 13:41:58;;;;;;;12.48;11.32;;;;;;;;;;4908471;29;20036;-76
2022/11/06 13:44:23;;;;;;;13.30;12.13;;;;;;;;;;4924062;29;20039;-76
2022/11/06 13:46:52;;;;;;;11.38;8.70;;;;;;;;;;4908368;29;20040;-75
2022/11/06 13:49:26;;;;;;;16.40;12.70;;;;;;;;;;4927478;29;20578;-75
2022/11/06 13:51:53;;;;;;;14.88;10.00;;;;;;;;;;4891909;29;20035;-75
2022/11/06 13:54:27;;;;;;;9.60;8.82;;;;;;;;;;4921540;29;20104;-75
2022/11/06 13:57:01;;;;;;;11.07;9.98;;;;;;;;;;4923847;29;20047;-75
2022/11/06 13:59:30;;;;;;;8.57;7.72;;;;;;;;;;4903765;29;20135;-74
2022/11/06 14:02:00;;;;;;;10.68;8.82;;;;;;;;;;4917909;29;20410;-73
2022/11/06 14:04:29;;;;;;;11.10;10.02;;;;;;;;;;4914760;29;20106;-73
2022/11/06 14:06:55;;;;;;;9.25;8.35;;;;;;;;;;4922756;29;20051;-78
2022/11/06 14:09:22;;;;;;;10.85;9.55;;;;;;;;;;4928178;29;20028;-77
2022/11/06 14:11:52;;;;;;;10.13;8.90;;;;;;;;;;4912010;29;20032;-77
2022/11/06 14:14:19;;;;;;;9.02;7.72;;;;;;;;;;4924393;29;20032;-77
2022/11/06 14:16:46;;;;;;;12.48;10.30;;;;;;;;;;4924383;29;20074;-77
2022/11/06 14:19:13;;;;;;;14.00;11.32;;;;;;;;;;4905930;29;20056;-76
2022/11/06 14:21:42;;;;;;;12.43;11.20;;;;;;;;;;4923302;29;20726;-76
2022/11/06 14:24:14;;;;;;;8.20;7.43;;;;;;;;;;4922712;29;20044;-77
2022/11/06 14:26:40;;;;;;;11.25;9.98;;;;;;;;;;4923942;29;20043;-77
2022/11/06 14:29:24;;;;;;;8.63;7.82;;;;;;;;;;4928515;29;20036;-76
2022/11/06 14:32:09;;;;;;;8.38;7.55;;;;;;;;;;4928202;29;20100;-77
2022/11/06 14:34:39;;;;;;;9.80;8.77;;;;;;;;;;4911463;29;20103;-78
2022/11/06 14:37:12;;;;;;;13.18;10.80;;;;;;;;;;4927718;29;20088;-77
2022/11/06 14:39:50;;;;;;;17.50;11.75;;;;;;;;;;4911607;29;20032;-78
2022/11/06 14:42:22;;;;;;;10.13;9.02;;;;;;;;;;4930840;29;20094;-80
2022/11/06 14:44:54;;;;;;;9.20;8.27;;;;;;;;;;4929619;29;20040;-78
2022/11/06 14:47:22;;;;;;;8.95;7.95;;;;;;;;;;4931188;29;20020;-80